Impacts TAF Board INFO
FOR SITUATIONAL AWARENESS. NOT TO BE USED FOR FLIGHT PLANNING PURPOSES.
IDs:

KMGM - Montgomery/Dannely F, AL, US

Issued at 1120 UTC 22 Nov 2017
Updated at 1445 UTC 22 Nov 2017
Potential Impact None Slight Moderate High
Time1353Z 22/15Z 22/16Z 22/17Z 22/18Z 22/19Z 22/20Z 22/21Z 22/22Z 22/23Z 23/00Z 23/01Z 23/02Z 23/03Z>>
Type OBS PRVL PRVL PRVL PRVL PRVL PRVL PRVL PRVL PRVL PRVL PRVL PRVL PRVL
VIS 10 >6 >6 >6 >6 >6 >6 >6 >6 >6 >6 >6 >6 >6
CIG -- -- -- -- -- -- -- -- -- -- -- -- -- --
Cover CLR SCT SCT SCT SCT SCT SCT SCT SCT SCT SCT SCT SCT SCT
FltCat VFR VFR VFR VFR VFR VFR VFR VFR VFR VFR VFR VFR VFR VFR
WX -- -- -- -- -- -- -- -- -- -- -- -- -- --
WDir 360 350 350 350 350 350 350 350 350 350 350 350 340 340
WSpd 5 10 10 10 10 10 10 10 10 10 10 10 5 5
WGst -- -- -- -- -- -- -- -- -- -- -- -- -- --

Raw TAF
KMGM 221120Z 2212/2312 00000KT P6SM SCT250
  FM221500 35010KT P6SM SCT250
  FM230200 34005KT P6SM SCT250


Raw METAR
KMGM 221353Z 36005KT 10SM CLR 11/05 A3010 RMK AO2 SLP194 T01060050
KMGM 221253Z 00000KT 10SM CLR 06/03 A3009 RMK AO2 SLP189 T00560028
KMGM 221153Z COR 00000KT 10SM CLR 04/02 A3007 RMK AO2 SLP184 T00440022 10100 20033 53017

METAR Board
Radar Display
Forecast Discussion

FOR SITUATIONAL AWARENESS. NOT TO BE USED FOR FLIGHT PLANNING PURPOSES.